createdAt,value
2022-08-31T00:01:20.865Z,4.07
2022-08-31T00:04:06.023Z,3.22
2022-08-31T00:06:33.860Z,4.30
2022-08-31T00:09:01.604Z,6.88
2022-08-31T00:11:30.324Z,5.40
2022-08-31T00:13:59.213Z,5.20
2022-08-31T00:16:27.752Z,3.78
2022-08-31T00:18:54.734Z,4.20
2022-08-31T00:21:23.323Z,6.95
2022-08-31T00:23:50.058Z,5.60
2022-08-31T00:26:16.804Z,6.15
2022-08-31T00:28:43.516Z,4.10
2022-08-31T00:31:13.003Z,6.03
2022-08-31T00:33:40.356Z,4.63
2022-08-31T00:36:10.457Z,5.43
2022-08-31T00:38:37.330Z,3.50
2022-08-31T00:41:04.452Z,6.65
2022-08-31T00:43:39.003Z,4.93
2022-08-31T00:46:06.182Z,3.80
2022-08-31T00:48:33.125Z,4.53
2022-08-31T00:50:59.704Z,6.32
2022-08-31T00:53:26.269Z,7.53
2022-08-31T00:55:53.032Z,7.30
2022-08-31T00:58:19.650Z,5.50
2022-08-31T01:00:46.415Z,4.38
2022-08-31T01:03:13.020Z,5.10
2022-08-31T01:05:40.219Z,10.23
2022-08-31T01:08:06.965Z,6.00
2022-08-31T01:10:37.122Z,5.80
2022-08-31T01:13:03.732Z,6.60
2022-08-31T01:15:30.691Z,7.10
2022-08-31T01:17:59.715Z,6.10
2022-08-31T01:20:53.591Z,6.20
2022-08-31T01:23:25.500Z,6.90
2022-08-31T01:25:52.613Z,6.90
2022-08-31T01:28:19.506Z,7.93
2022-08-31T01:31:07.535Z,7.32
2022-08-31T01:33:35.795Z,7.30
2022-08-31T01:36:02.680Z,5.88
2022-08-31T01:38:29.398Z,8.10
2022-08-31T01:40:58.655Z,6.63
2022-08-31T01:43:25.427Z,7.15
2022-08-31T01:45:52.431Z,7.15
2022-08-31T01:48:19.270Z,12.52
2022-08-31T01:50:46.243Z,9.50
2022-08-31T01:53:13.350Z,7.30
2022-08-31T01:55:40.226Z,6.40
2022-08-31T01:58:07.021Z,6.40
2022-08-31T02:00:34.363Z,8.82
2022-08-31T02:03:02.207Z,7.88
2022-08-31T02:05:29.367Z,6.68
2022-08-31T02:07:56.774Z,7.93
2022-08-31T02:10:24.271Z,7.25
2022-08-31T02:12:50.885Z,6.18
2022-08-31T02:15:17.569Z,6.07
2022-08-31T02:17:44.379Z,8.38
2022-08-31T02:20:11.515Z,9.15
2022-08-31T02:22:38.233Z,6.50
2022-08-31T02:25:05.705Z,7.82
2022-08-31T02:27:36.953Z,6.18
2022-08-31T02:30:08.957Z,6.70
2022-08-31T02:32:35.552Z,9.20
2022-08-31T02:35:02.376Z,9.07
2022-08-31T02:37:28.997Z,6.13
2022-08-31T02:39:55.984Z,6.15
2022-08-31T02:42:22.669Z,10.63
2022-08-31T02:44:50.232Z,6.22
2022-08-31T02:47:16.942Z,10.55
2022-08-31T02:49:43.561Z,5.82
2022-08-31T02:52:10.175Z,6.10
2022-08-31T02:54:36.847Z,6.28
2022-08-31T02:57:03.611Z,6.35
2022-08-31T02:59:30.244Z,6.70
2022-08-31T03:01:56.986Z,10.68
2022-08-31T03:04:23.695Z,7.82
2022-08-31T03:06:50.412Z,9.80
2022-08-31T03:09:17.072Z,6.05
2022-08-31T03:11:43.684Z,9.07
2022-08-31T03:14:10.331Z,11.18
2022-08-31T03:20:19.106Z,10.20
2022-08-31T03:22:45.926Z,8.68
2022-08-31T03:25:12.780Z,10.55
2022-08-31T03:27:40.678Z,8.38
2022-08-31T03:30:10.646Z,5.90
2022-08-31T03:32:37.342Z,8.80
2022-08-31T03:35:04.479Z,6.15
2022-08-31T03:37:31.539Z,8.15
2022-08-31T03:39:58.300Z,7.32
2022-08-31T03:42:25.679Z,8.20
2022-08-31T03:44:54.283Z,8.20
2022-08-31T03:47:21.272Z,8.55
2022-08-31T03:49:50.288Z,9.75
2022-08-31T03:52:16.969Z,8.82
2022-08-31T03:54:43.835Z,5.97
2022-08-31T03:57:10.877Z,10.20
2022-08-31T03:59:37.497Z,10.50
2022-08-31T04:02:04.230Z,7.30
2022-08-31T04:04:30.820Z,7.93
2022-08-31T04:06:57.495Z,7.30
2022-08-31T04:09:24.100Z,6.68
2022-08-31T04:11:52.139Z,6.18
2022-08-31T04:14:18.839Z,7.80
2022-08-31T04:16:45.661Z,8.88
2022-08-31T04:19:15.946Z,7.10
2022-08-31T04:21:44.449Z,5.95
2022-08-31T04:24:12.162Z,7.43
2022-08-31T04:26:40.854Z,6.00
2022-08-31T04:29:12.803Z,9.02
2022-08-31T04:31:39.855Z,7.40
2022-08-31T04:34:06.563Z,8.25
2022-08-31T04:36:33.231Z,7.75
2022-08-31T04:39:01.772Z,6.95
2022-08-31T04:41:29.535Z,7.88
2022-08-31T04:43:58.134Z,8.82
2022-08-31T04:46:24.932Z,7.68
2022-08-31T04:48:51.897Z,7.18
2022-08-31T04:51:23.817Z,12.15
2022-08-31T04:53:50.964Z,11.10
2022-08-31T04:56:20.688Z,7.43
2022-08-31T04:58:49.339Z,7.32
2022-08-31T05:01:18.660Z,7.35
2022-08-31T05:03:45.319Z,7.30
2022-08-31T05:06:16.132Z,8.60
2022-08-31T05:08:43.008Z,7.07
2022-08-31T05:11:15.554Z,5.63
2022-08-31T05:13:42.333Z,6.88
2022-08-31T05:16:10.778Z,9.25
2022-08-31T05:18:41.645Z,7.82
2022-08-31T05:21:28.214Z,6.75
2022-08-31T05:24:09.503Z,6.25
2022-08-31T05:26:42.129Z,10.32
2022-08-31T05:31:37.162Z,8.30
2022-08-31T05:34:03.971Z,8.52
2022-08-31T05:36:30.641Z,7.40
2022-08-31T05:39:01.055Z,11.07
2022-08-31T05:41:28.711Z,8.60
2022-08-31T05:43:55.642Z,7.35
2022-08-31T05:46:22.277Z,7.50
2022-08-31T05:48:50.028Z,8.40
2022-08-31T05:51:17.966Z,8.43
2022-08-31T05:53:44.746Z,8.05
2022-08-31T05:56:15.096Z,8.75
2022-08-31T05:58:44.405Z,11.85
2022-08-31T06:01:18.646Z,10.63
2022-08-31T06:03:45.963Z,7.60
2022-08-31T06:06:13.213Z,9.13
2022-08-31T06:08:40.232Z,11.65
2022-08-31T06:11:08.081Z,7.75
2022-08-31T06:13:34.717Z,7.90
2022-08-31T06:16:02.393Z,8.60
2022-08-31T06:18:29.128Z,7.90
2022-08-31T06:21:09.088Z,10.55
2022-08-31T06:23:40.025Z,8.30
2022-08-31T06:26:08.176Z,10.55
2022-08-31T06:28:34.854Z,8.68
2022-08-31T06:31:02.573Z,7.80
2022-08-31T06:33:29.518Z,10.30
2022-08-31T06:35:56.572Z,8.57
2022-08-31T06:38:25.005Z,10.50
2022-08-31T06:40:51.652Z,10.43
2022-08-31T06:43:18.647Z,9.02
2022-08-31T06:45:45.579Z,7.93
2022-08-31T06:48:12.206Z,7.43
2022-08-31T06:50:41.378Z,8.98
2022-08-31T06:53:08.205Z,6.20
2022-08-31T06:55:35.294Z,7.70
2022-08-31T06:58:02.554Z,6.45
2022-08-31T07:00:30.916Z,6.80
2022-08-31T07:02:58.061Z,6.47
2022-08-31T07:05:24.985Z,5.72
2022-08-31T07:07:51.669Z,5.35
2022-08-31T07:10:19.481Z,8.32
2022-08-31T07:12:46.091Z,6.13
2022-08-31T07:15:12.738Z,6.90
2022-08-31T07:17:39.315Z,6.35
2022-08-31T07:20:06.502Z,7.10
2022-08-31T07:22:33.079Z,6.75
2022-08-31T07:24:59.748Z,5.15
2022-08-31T07:27:26.304Z,6.43
2022-08-31T07:29:52.924Z,8.73
2022-08-31T07:32:19.822Z,4.30
2022-08-31T07:34:46.418Z,5.07
2022-08-31T07:37:31.347Z,8.90
2022-08-31T07:40:16.597Z,5.32
2022-08-31T07:42:44.771Z,6.05
2022-08-31T07:45:20.028Z,6.10
2022-08-31T07:47:50.327Z,7.05
2022-08-31T07:50:17.586Z,5.10
2022-08-31T07:52:48.792Z,5.00
2022-08-31T07:55:16.858Z,6.10
2022-08-31T07:57:44.330Z,6.63
2022-08-31T08:00:15.370Z,10.07
2022-08-31T08:02:50.790Z,6.30
2022-08-31T08:05:26.884Z,6.03
2022-08-31T08:07:57.685Z,7.22
2022-08-31T08:10:24.388Z,6.22
2022-08-31T08:12:58.254Z,8.75
2022-08-31T08:15:26.569Z,7.25
2022-08-31T08:17:53.156Z,7.85
2022-08-31T08:20:34.163Z,6.40
2022-08-31T08:23:11.704Z,6.45
2022-08-31T08:25:41.114Z,5.95
2022-08-31T08:28:28.937Z,6.38
2022-08-31T08:31:01.487Z,8.30
2022-08-31T08:33:29.177Z,6.97
2022-08-31T08:36:00.460Z,5.00
2022-08-31T08:38:30.945Z,6.05
2022-08-31T08:41:02.302Z,9.90
2022-08-31T08:43:34.397Z,6.18
2022-08-31T08:46:20.192Z,6.25
2022-08-31T08:48:55.740Z,5.72
2022-08-31T08:51:25.189Z,7.53
2022-08-31T08:53:52.693Z,4.55
2022-08-31T08:56:32.911Z,7.20
2022-08-31T08:59:00.648Z,4.78
2022-08-31T09:01:29.080Z,5.97
2022-08-31T09:03:59.999Z,6.90
2022-08-31T09:06:54.658Z,5.57
2022-08-31T09:09:34.832Z,6.35
2022-08-31T09:12:47.009Z,7.50
2022-08-31T09:15:37.111Z,7.60
2022-08-31T09:18:24.930Z,5.07
2022-08-31T09:21:25.429Z,5.18
2022-08-31T09:23:56.046Z,7.82
2022-08-31T09:26:25.981Z,7.72
2022-08-31T09:28:53.049Z,5.97
2022-08-31T09:31:38.092Z,6.15
2022-08-31T09:34:12.908Z,6.80
2022-08-31T09:36:43.480Z,6.78
2022-08-31T09:39:21.241Z,4.82
2022-08-31T09:41:48.403Z,7.68
2022-08-31T09:44:32.168Z,7.85
2022-08-31T09:47:03.868Z,4.95
2022-08-31T09:49:34.477Z,6.82
2022-08-31T09:52:49.109Z,4.32
2022-08-31T09:55:21.832Z,6.00
2022-08-31T10:00:39.907Z,7.57
2022-08-31T10:03:17.257Z,6.10
2022-08-31T10:05:44.715Z,9.32
2022-08-31T10:08:18.870Z,4.60
2022-08-31T10:10:47.185Z,5.57
2022-08-31T10:13:18.097Z,7.57
2022-08-31T10:16:02.795Z,11.05
2022-08-31T10:18:51.388Z,7.13
2022-08-31T10:21:21.435Z,6.20
2022-08-31T10:23:54.479Z,7.18
2022-08-31T10:26:29.539Z,7.75
2022-08-31T10:28:56.223Z,7.13
2022-08-31T10:31:30.123Z,10.65
2022-08-31T10:34:21.237Z,6.22
2022-08-31T10:36:50.167Z,9.25
2022-08-31T10:39:20.298Z,9.18
2022-08-31T10:41:48.779Z,4.80
2022-08-31T10:44:26.398Z,7.50
2022-08-31T10:46:58.202Z,8.55
2022-08-31T10:49:24.991Z,7.75
2022-08-31T10:52:16.223Z,8.95
2022-08-31T10:55:05.567Z,6.25
2022-08-31T10:57:43.857Z,7.13
2022-08-31T11:00:38.401Z,8.95
2022-08-31T11:03:17.910Z,8.13
2022-08-31T11:06:06.778Z,6.32
2022-08-31T11:08:54.155Z,5.28
2022-08-31T11:11:33.397Z,6.57
2022-08-31T11:14:32.548Z,7.90
2022-08-31T11:17:21.046Z,6.10
2022-08-31T11:20:19.920Z,8.07
2022-08-31T11:23:13.589Z,9.68
2022-08-31T11:26:05.762Z,8.63
2022-08-31T11:28:38.051Z,7.30
2022-08-31T11:31:23.602Z,9.75
2022-08-31T11:34:14.515Z,9.73
2022-08-31T11:36:50.346Z,8.05
2022-08-31T11:39:26.820Z,11.88
2022-08-31T11:41:54.355Z,8.25
2022-08-31T11:44:30.032Z,8.27
2022-08-31T11:47:34.754Z,11.73
2022-08-31T11:50:04.728Z,9.05
2022-08-31T11:52:43.634Z,10.02
2022-08-31T11:55:46.449Z,9.80
2022-08-31T11:58:25.944Z,10.27
2022-08-31T12:00:58.590Z,14.60
2022-08-31T12:04:03.313Z,11.73
2022-08-31T12:06:32.259Z,9.25
2022-08-31T12:09:22.274Z,10.00
2022-08-31T12:12:10.656Z,11.23
2022-08-31T12:14:51.284Z,9.32
2022-08-31T12:18:00.315Z,8.38
2022-08-31T12:20:32.584Z,10.90
2022-08-31T12:23:35.379Z,8.18
2022-08-31T12:26:35.318Z,10.15
2022-08-31T12:29:07.969Z,9.55
2022-08-31T12:31:35.832Z,8.32
2022-08-31T12:34:08.459Z,10.07
2022-08-31T12:36:36.459Z,9.13
2022-08-31T12:39:13.957Z,10.60
2022-08-31T12:41:47.278Z,7.40
2022-08-31T12:44:22.829Z,11.18
2022-08-31T12:47:05.916Z,7.68
2022-08-31T12:49:41.731Z,11.75
2022-08-31T12:52:13.249Z,7.82
2022-08-31T12:54:43.749Z,8.65
2022-08-31T12:57:29.112Z,7.70
2022-08-31T13:00:11.711Z,6.70
2022-08-31T13:02:42.897Z,7.22
2022-08-31T13:05:28.805Z,9.55
2022-08-31T13:07:55.913Z,7.20
2022-08-31T13:10:22.462Z,8.48
2022-08-31T13:13:01.154Z,5.43
2022-08-31T13:15:36.210Z,6.63
2022-08-31T13:18:15.355Z,5.72
2022-08-31T13:20:46.618Z,6.00
2022-08-31T13:23:22.478Z,6.22
2022-08-31T13:26:10.040Z,6.47
2022-08-31T13:28:36.634Z,6.57
2022-08-31T13:31:06.262Z,4.82
2022-08-31T13:33:40.302Z,6.50
2022-08-31T13:36:09.815Z,5.75
2022-08-31T13:38:43.835Z,4.85
2022-08-31T13:41:22.685Z,7.28
2022-08-31T13:43:57.957Z,5.38
2022-08-31T13:46:42.893Z,4.60
2022-08-31T13:49:32.458Z,9.00
2022-08-31T13:51:59.185Z,4.90
2022-08-31T13:54:29.539Z,4.20
2022-08-31T13:56:56.309Z,4.90
2022-08-31T13:59:26.688Z,4.80
2022-08-31T14:02:26.028Z,4.53
2022-08-31T14:05:05.882Z,5.35
2022-08-31T14:07:46.689Z,6.47
2022-08-31T14:10:15.832Z,5.57
2022-08-31T14:12:51.737Z,3.88
2022-08-31T14:15:27.305Z,5.28
2022-08-31T14:21:23.705Z,4.28
2022-08-31T14:24:02.089Z,3.70
2022-08-31T14:26:41.696Z,7.03
2022-08-31T14:29:14.273Z,4.25
2022-08-31T14:31:45.262Z,4.95
2022-08-31T14:34:28.266Z,4.93
2022-08-31T14:37:07.829Z,3.42
2022-08-31T14:39:38.723Z,3.97
2022-08-31T14:42:11.768Z,6.13
2022-08-31T14:44:40.155Z,3.72
2022-08-31T14:47:09.575Z,4.28
2022-08-31T14:49:36.912Z,4.53
2022-08-31T14:52:06.423Z,4.18
2022-08-31T14:54:37.952Z,6.55
2022-08-31T14:57:18.473Z,6.07
2022-08-31T14:59:46.890Z,4.32
2022-08-31T15:02:21.284Z,5.18
2022-08-31T15:04:48.597Z,5.43
2022-08-31T15:07:16.262Z,5.90
2022-08-31T15:09:43.769Z,5.50
2022-08-31T15:12:14.756Z,6.35
2022-08-31T15:14:43.239Z,5.18
2022-08-31T15:17:13.006Z,10.77
2022-08-31T15:19:46.213Z,7.13
2022-08-31T15:22:12.888Z,8.18
2022-08-31T15:24:45.503Z,8.00
2022-08-31T15:29:40.992Z,5.70
2022-08-31T15:32:10.312Z,8.52
2022-08-31T15:34:38.182Z,3.97
2022-08-31T15:37:07.276Z,5.93
2022-08-31T15:39:41.198Z,7.03
2022-08-31T15:42:11.274Z,4.47
2022-08-31T15:44:39.599Z,5.55
2022-08-31T15:47:26.015Z,4.93
2022-08-31T15:49:52.673Z,5.45
2022-08-31T15:52:19.611Z,4.63
2022-08-31T15:54:47.087Z,4.10
2022-08-31T15:57:16.139Z,4.40
2022-08-31T15:59:46.166Z,5.18
2022-08-31T16:02:14.240Z,7.30
2022-08-31T16:04:43.561Z,3.58
2022-08-31T16:07:11.314Z,5.15
2022-08-31T16:09:44.725Z,5.53
2022-08-31T16:12:13.921Z,4.47
2022-08-31T16:14:41.918Z,4.80
2022-08-31T16:17:09.624Z,6.45
2022-08-31T16:19:39.551Z,5.95
2022-08-31T16:22:07.757Z,5.57
2022-08-31T16:24:38.021Z,6.55
2022-08-31T16:27:06.502Z,6.57
2022-08-31T16:29:33.330Z,4.90
2022-08-31T16:32:00.506Z,5.57
2022-08-31T16:34:27.305Z,5.47
2022-08-31T16:36:54.024Z,5.80
2022-08-31T16:39:21.669Z,8.38
2022-08-31T16:41:50.259Z,6.80
2022-08-31T16:44:20.119Z,10.90
2022-08-31T16:46:47.241Z,8.98
2022-08-31T16:49:32.911Z,5.32
2022-08-31T16:52:10.024Z,6.88
2022-08-31T16:54:42.996Z,5.97
2022-08-31T16:57:10.842Z,7.00
2022-08-31T16:59:37.683Z,6.10
2022-08-31T17:02:04.473Z,5.88
2022-08-31T17:07:18.701Z,7.22
2022-08-31T17:09:45.912Z,5.88
2022-08-31T17:12:16.110Z,5.90
2022-08-31T17:14:47.019Z,8.63
2022-08-31T17:17:16.002Z,6.70
2022-08-31T17:19:44.309Z,6.68
2022-08-31T17:22:16.926Z,6.05
2022-08-31T17:24:46.680Z,5.30
2022-08-31T17:27:16.562Z,5.65
2022-08-31T17:29:47.825Z,5.88
2022-08-31T17:32:16.391Z,8.00
2022-08-31T17:34:43.337Z,9.13
2022-08-31T17:37:13.211Z,7.85
2022-08-31T17:39:41.942Z,8.27
2022-08-31T17:42:08.696Z,7.80
2022-08-31T17:44:37.828Z,6.13
2022-08-31T17:47:05.471Z,8.27
2022-08-31T17:49:37.883Z,8.27
2022-08-31T17:52:06.702Z,7.60
2022-08-31T17:54:34.639Z,5.32
2022-08-31T17:57:02.430Z,7.55
2022-08-31T17:59:40.850Z,8.38
2022-08-31T18:02:16.769Z,6.03
2022-08-31T18:04:43.906Z,7.53
2022-08-31T18:07:11.130Z,7.72
2022-08-31T18:09:40.439Z,8.30
2022-08-31T18:12:08.107Z,7.68
2022-08-31T18:14:35.554Z,6.75
2022-08-31T18:17:03.413Z,8.23
2022-08-31T18:19:32.448Z,6.70
2022-08-31T18:21:59.571Z,7.45
2022-08-31T18:24:26.693Z,8.23
2022-08-31T18:26:53.665Z,8.95
2022-08-31T18:29:24.942Z,8.38
2022-08-31T18:31:54.232Z,8.98
2022-08-31T18:34:23.339Z,9.50
2022-08-31T18:36:53.808Z,10.10
2022-08-31T18:39:34.835Z,10.00
2022-08-31T18:42:28.200Z,14.15
2022-08-31T18:45:13.612Z,9.77
2022-08-31T18:47:40.429Z,10.32
2022-08-31T18:50:07.958Z,9.63
2022-08-31T18:52:39.500Z,12.38
2022-08-31T18:55:06.982Z,13.27
2022-08-31T18:57:34.293Z,11.57
2022-08-31T19:00:14.453Z,11.80
2022-08-31T19:02:41.644Z,14.20
2022-08-31T19:05:09.482Z,13.80
2022-08-31T19:07:36.504Z,14.23
2022-08-31T19:10:04.517Z,19.45
2022-08-31T19:12:31.343Z,15.15
2022-08-31T19:14:59.406Z,11.82
2022-08-31T19:17:26.291Z,13.90
2022-08-31T19:19:54.577Z,11.95
2022-08-31T19:22:21.981Z,18.27
2022-08-31T19:24:49.720Z,12.98
2022-08-31T19:27:16.764Z,13.70
2022-08-31T19:29:43.511Z,12.63
2022-08-31T19:32:10.314Z,13.98
2022-08-31T19:34:39.532Z,13.45
2022-08-31T19:37:07.951Z,13.55
2022-08-31T19:39:36.388Z,14.88
2022-08-31T19:42:07.282Z,13.23
2022-08-31T19:47:25.676Z,13.88
2022-08-31T19:49:55.697Z,19.02
2022-08-31T19:52:24.834Z,15.13
2022-08-31T19:54:52.546Z,13.05
2022-08-31T19:57:21.780Z,13.55
2022-08-31T19:59:50.019Z,12.93
2022-08-31T20:02:17.326Z,13.63
2022-08-31T20:04:45.423Z,13.77
2022-08-31T20:07:14.436Z,13.70
2022-08-31T20:09:41.140Z,15.43
2022-08-31T20:12:08.078Z,12.90
2022-08-31T20:14:35.517Z,13.55
2022-08-31T20:17:02.455Z,13.00
2022-08-31T20:19:36.192Z,13.65
2022-08-31T20:22:06.797Z,13.60
2022-08-31T20:24:34.888Z,12.88
2022-08-31T20:27:09.508Z,13.15
2022-08-31T20:29:38.833Z,11.30
2022-08-31T20:32:08.127Z,14.13
2022-08-31T20:34:35.028Z,12.20
2022-08-31T20:37:02.663Z,13.40
2022-08-31T20:39:31.389Z,13.57
2022-08-31T20:41:59.198Z,13.52
2022-08-31T20:44:29.188Z,16.83
2022-08-31T20:47:18.591Z,17.88
2022-08-31T20:49:50.076Z,13.75
2022-08-31T20:52:17.415Z,13.02
2022-08-31T20:54:44.716Z,13.00
2022-08-31T20:57:13.453Z,13.68
2022-08-31T20:59:41.503Z,15.55
2022-08-31T21:02:09.473Z,14.13
2022-08-31T21:04:38.859Z,12.93
2022-08-31T21:07:06.280Z,13.27
2022-08-31T21:09:33.066Z,15.60
2022-08-31T21:11:59.800Z,17.90
2022-08-31T21:14:27.617Z,16.45
2022-08-31T21:16:55.266Z,17.58
2022-08-31T21:19:23.034Z,14.85
2022-08-31T21:21:51.685Z,14.38
2022-08-31T21:24:19.520Z,16.77
2022-08-31T21:26:46.696Z,15.02
2022-08-31T21:29:15.688Z,15.90
2022-08-31T21:31:52.008Z,15.20
2022-08-31T21:34:25.089Z,14.85
2022-08-31T21:36:51.729Z,19.20
2022-08-31T21:39:20.089Z,15.98
2022-08-31T21:41:47.048Z,17.88
2022-08-31T21:44:16.505Z,18.13
2022-08-31T21:46:48.341Z,18.63
2022-08-31T21:49:17.957Z,16.98
2022-08-31T21:51:49.815Z,17.85
2022-08-31T21:54:19.115Z,17.63
2022-08-31T21:56:48.461Z,19.08
2022-08-31T21:59:17.089Z,17.02
2022-08-31T22:01:45.236Z,19.33
2022-08-31T22:04:13.926Z,16.02
2022-08-31T22:06:43.165Z,15.90
2022-08-31T22:09:15.861Z,16.20
2022-08-31T22:11:46.061Z,15.80
2022-08-31T22:14:16.026Z,16.55
2022-08-31T22:16:46.511Z,15.68
2022-08-31T22:19:15.517Z,14.52
2022-08-31T22:21:45.552Z,15.27
2022-08-31T22:24:27.659Z,13.93
2022-08-31T22:26:56.494Z,18.08
2022-08-31T22:29:26.106Z,13.98
2022-08-31T22:31:56.327Z,14.30
2022-08-31T22:34:24.114Z,15.13
2022-08-31T22:36:52.162Z,15.52
2022-08-31T22:39:21.518Z,14.35
2022-08-31T22:41:48.406Z,13.30
2022-08-31T22:44:17.395Z,14.40
2022-08-31T22:46:44.803Z,14.15
2022-08-31T22:49:11.578Z,13.90
2022-08-31T22:51:40.838Z,15.52
2022-08-31T22:54:08.839Z,14.02
2022-08-31T22:56:39.098Z,13.07
2022-08-31T22:59:09.228Z,14.02
2022-08-31T23:01:44.192Z,14.27
2022-08-31T23:04:13.193Z,15.52
2022-08-31T23:06:40.066Z,14.02
2022-08-31T23:09:09.389Z,14.57
2022-08-31T23:11:36.988Z,14.40
2022-08-31T23:14:07.466Z,15.05
2022-08-31T23:16:44.072Z,14.57
2022-08-31T23:19:16.574Z,16.48
2022-08-31T23:21:52.728Z,16.98
2022-08-31T23:24:29.411Z,16.35
2022-08-31T23:27:04.405Z,16.98
2022-08-31T23:29:34.584Z,16.17
2022-08-31T23:32:01.307Z,16.35
2022-08-31T23:34:27.887Z,20.35
2022-08-31T23:36:55.687Z,17.45
2022-08-31T23:39:25.369Z,19.20
2022-08-31T23:41:53.342Z,15.85
2022-08-31T23:44:20.423Z,16.67
2022-08-31T23:46:47.450Z,16.33
2022-08-31T23:49:16.545Z,17.42
2022-08-31T23:51:43.540Z,17.98
2022-08-31T23:54:12.684Z,16.85
2022-08-31T23:56:40.860Z,15.70
2022-08-31T23:59:11.347Z,15.35
